createdAt,value
2023-03-13T00:00:59.609Z,6.80
2023-03-13T00:03:26.213Z,6.90
2023-03-13T00:05:58.905Z,6.80
2023-03-13T00:08:26.046Z,6.90
2023-03-13T00:10:52.652Z,7.00
2023-03-13T00:13:19.269Z,7.00
2023-03-13T00:15:45.858Z,7.00
2023-03-13T00:18:12.540Z,7.10
2023-03-13T00:20:39.188Z,7.10
2023-03-13T00:23:05.768Z,7.10
2023-03-13T00:25:32.372Z,7.10
2023-03-13T00:27:59.053Z,7.20
2023-03-13T00:30:25.812Z,7.20
2023-03-13T00:32:52.492Z,7.30
2023-03-13T00:35:19.256Z,7.30
2023-03-13T00:37:45.836Z,7.30
2023-03-13T00:40:12.551Z,7.30
2023-03-13T00:42:39.101Z,7.30
2023-03-13T00:45:05.974Z,7.50
2023-03-13T00:47:32.555Z,7.40
2023-03-13T00:49:59.146Z,7.40
2023-03-13T00:52:28.029Z,7.50
2023-03-13T00:54:55.489Z,7.50
2023-03-13T00:57:22.173Z,7.50
2023-03-13T00:59:48.761Z,7.60
2023-03-13T01:02:15.461Z,7.60
2023-03-13T01:04:42.141Z,7.60
2023-03-13T01:07:08.699Z,7.70
2023-03-13T01:09:35.269Z,7.70
2023-03-13T01:12:01.835Z,7.80
2023-03-13T01:14:28.519Z,7.80
2023-03-13T01:16:55.088Z,7.80
2023-03-13T01:19:21.672Z,7.90
2023-03-13T01:21:48.339Z,7.90
2023-03-13T01:24:15.020Z,7.90
2023-03-13T01:26:42.157Z,7.90
2023-03-13T01:29:08.712Z,8.00
2023-03-13T01:31:35.851Z,8.00
2023-03-13T01:34:04.142Z,8.00
2023-03-13T01:36:31.006Z,8.10
2023-03-13T01:38:58.631Z,8.10
2023-03-13T01:41:26.594Z,8.10
2023-03-13T01:43:53.417Z,8.10
2023-03-13T01:46:21.411Z,8.10
2023-03-13T01:48:48.241Z,8.10
2023-03-13T01:51:18.152Z,8.10
2023-03-13T01:53:46.964Z,8.10
2023-03-13T01:56:18.607Z,8.10
2023-03-13T01:58:45.760Z,8.10
2023-03-13T02:01:12.805Z,8.10
2023-03-13T02:03:39.544Z,8.10
2023-03-13T02:06:07.241Z,8.10
2023-03-13T02:08:39.670Z,8.20
2023-03-13T02:11:24.241Z,8.20
2023-03-13T02:13:51.784Z,8.20
2023-03-13T02:16:19.175Z,8.20
2023-03-13T02:18:46.100Z,8.30
2023-03-13T02:21:21.585Z,8.20
2023-03-13T02:23:56.498Z,8.20
2023-03-13T02:26:23.081Z,8.10
2023-03-13T02:28:50.239Z,8.10
2023-03-13T02:31:16.894Z,8.10
2023-03-13T02:33:44.683Z,8.10
2023-03-13T02:36:13.301Z,8.10
2023-03-13T02:38:47.438Z,8.10
2023-03-13T02:41:14.317Z,8.00
2023-03-13T02:43:40.964Z,8.10
2023-03-13T02:46:12.864Z,8.10
2023-03-13T02:48:41.586Z,8.10
2023-03-13T02:51:19.018Z,8.10
2023-03-13T02:53:46.450Z,8.10
2023-03-13T02:56:15.074Z,8.10
2023-03-13T02:58:49.697Z,8.10
2023-03-13T03:01:16.831Z,8.20
2023-03-13T03:03:43.645Z,8.20
2023-03-13T03:06:10.256Z,8.30
2023-03-13T03:08:36.923Z,8.20
2023-03-13T03:11:05.089Z,8.30
2023-03-13T03:13:31.729Z,8.20
2023-03-13T03:15:58.399Z,8.20
2023-03-13T03:18:25.255Z,8.30
2023-03-13T03:20:51.884Z,8.30
2023-03-13T03:23:18.459Z,8.30
2023-03-13T03:25:45.044Z,8.30
2023-03-13T03:28:11.629Z,8.30
2023-03-13T03:30:38.261Z,8.30
2023-03-13T03:33:05.069Z,8.20
2023-03-13T03:35:31.918Z,8.20
2023-03-13T03:37:58.546Z,8.20
2023-03-13T03:40:25.177Z,8.20
2023-03-13T03:42:51.771Z,8.20
2023-03-13T03:45:18.352Z,8.20
2023-03-13T03:47:44.936Z,8.20
2023-03-13T03:50:11.512Z,8.20
2023-03-13T03:52:38.334Z,8.20
2023-03-13T03:55:05.164Z,8.20
2023-03-13T03:57:31.709Z,8.20
2023-03-13T03:59:58.335Z,8.30
2023-03-13T04:02:24.993Z,8.20
2023-03-13T04:04:51.614Z,8.30
2023-03-13T04:07:18.178Z,8.30
2023-03-13T04:09:44.802Z,8.30
2023-03-13T04:12:11.375Z,8.30
2023-03-13T04:14:38.168Z,8.30
2023-03-13T04:17:04.819Z,8.30
2023-03-13T04:19:31.400Z,8.40
2023-03-13T04:21:58.014Z,8.40
2023-03-13T04:24:24.752Z,8.40
2023-03-13T04:26:51.320Z,8.40
2023-03-13T04:29:17.901Z,8.40
2023-03-13T04:31:44.452Z,8.40
2023-03-13T04:34:11.113Z,8.50
2023-03-13T04:36:37.703Z,8.50
2023-03-13T04:39:04.274Z,8.40
2023-03-13T04:41:30.879Z,8.40
2023-03-13T04:43:57.465Z,8.40
2023-03-13T04:46:24.162Z,8.40
2023-03-13T04:48:50.739Z,8.40
2023-03-13T04:51:17.331Z,8.50
2023-03-13T04:53:43.914Z,8.50
2023-03-13T04:56:11.962Z,8.40
2023-03-13T04:58:38.583Z,8.50
2023-03-13T05:01:05.222Z,8.50
2023-03-13T05:03:31.949Z,8.50
2023-03-13T05:05:58.546Z,8.40
2023-03-13T05:08:25.142Z,8.40
2023-03-13T05:10:51.714Z,8.40
2023-03-13T05:13:18.295Z,8.40
2023-03-13T05:15:44.916Z,8.50
2023-03-13T05:18:11.721Z,8.40
2023-03-13T05:20:38.312Z,8.50
2023-03-13T05:23:04.870Z,8.40
2023-03-13T05:25:31.438Z,8.50
2023-03-13T05:27:58.078Z,8.50
2023-03-13T05:30:24.692Z,8.50
2023-03-13T05:32:51.396Z,8.50
2023-03-13T05:35:18.025Z,8.50
2023-03-13T05:37:45.765Z,8.50
2023-03-13T05:40:13.007Z,8.50
2023-03-13T05:42:39.713Z,8.60
2023-03-13T05:45:06.627Z,8.50
2023-03-13T05:47:33.248Z,8.50
2023-03-13T05:49:59.812Z,8.50
2023-03-13T05:52:26.421Z,8.50
2023-03-13T05:54:52.994Z,8.50
2023-03-13T05:57:19.593Z,8.60
2023-03-13T05:59:46.134Z,8.50
2023-03-13T06:02:12.725Z,8.60
2023-03-13T06:04:39.589Z,8.60
2023-03-13T06:07:06.233Z,8.60
2023-03-13T06:09:32.807Z,8.50
2023-03-13T06:11:59.554Z,8.50
2023-03-13T06:14:26.311Z,8.60
2023-03-13T06:16:54.271Z,8.60
2023-03-13T06:19:22.436Z,8.60
2023-03-13T06:21:49.009Z,8.60
2023-03-13T06:24:15.595Z,8.50
2023-03-13T06:26:42.236Z,8.60
2023-03-13T06:29:09.404Z,8.50
2023-03-13T06:31:36.090Z,8.40
2023-03-13T06:34:02.767Z,8.50
2023-03-13T06:36:29.405Z,8.50
2023-03-13T06:38:56.142Z,8.50
2023-03-13T06:41:22.743Z,8.60
2023-03-13T06:43:49.391Z,8.60
2023-03-13T06:46:20.633Z,8.60
2023-03-13T06:48:47.508Z,8.60
2023-03-13T06:51:14.946Z,8.60
2023-03-13T06:53:42.077Z,8.60
2023-03-13T06:56:09.160Z,8.60
2023-03-13T06:58:36.233Z,8.60
2023-03-13T07:01:12.728Z,8.60
2023-03-13T07:03:41.319Z,8.60
2023-03-13T07:06:08.625Z,8.70
2023-03-13T07:08:36.018Z,8.70
2023-03-13T07:11:04.460Z,8.70
2023-03-13T07:13:31.605Z,8.60
2023-03-13T07:16:05.718Z,8.70
2023-03-13T07:18:32.521Z,8.70
2023-03-13T07:21:00.309Z,8.70
2023-03-13T07:23:27.924Z,8.70
2023-03-13T07:25:58.733Z,8.70
2023-03-13T07:28:26.026Z,8.60
2023-03-13T07:30:52.996Z,8.60
2023-03-13T07:33:19.839Z,8.60
2023-03-13T07:35:50.830Z,8.70
2023-03-13T07:38:18.009Z,8.80
2023-03-13T07:41:02.772Z,8.80
2023-03-13T07:43:31.258Z,8.80
2023-03-13T07:45:59.913Z,8.90
2023-03-13T07:48:30.843Z,8.90
2023-03-13T07:50:57.895Z,8.90
2023-03-13T07:53:24.702Z,9.00
2023-03-13T07:55:52.088Z,9.00
2023-03-13T07:58:18.680Z,9.10
2023-03-13T08:00:45.217Z,9.10
2023-03-13T08:03:14.616Z,9.00
2023-03-13T08:05:41.568Z,9.00
2023-03-13T08:08:08.909Z,9.10
2023-03-13T08:10:35.675Z,9.20
2023-03-13T08:13:02.498Z,9.10
2023-03-13T08:15:29.189Z,9.10
2023-03-13T08:17:56.683Z,9.10
2023-03-13T08:20:23.700Z,9.10
2023-03-13T08:22:50.495Z,9.00
2023-03-13T08:25:17.171Z,9.00
2023-03-13T08:27:43.778Z,9.00
2023-03-13T08:30:10.659Z,9.10
2023-03-13T08:32:37.369Z,9.00
2023-03-13T08:35:04.673Z,9.10
2023-03-13T08:37:31.332Z,9.20
2023-03-13T08:39:58.005Z,9.10
2023-03-13T08:42:24.646Z,9.20
2023-03-13T08:44:51.256Z,9.20
2023-03-13T08:47:20.970Z,9.30
2023-03-13T08:49:47.571Z,9.30
2023-03-13T08:52:14.187Z,9.30
2023-03-13T08:54:40.884Z,9.40
2023-03-13T08:57:07.475Z,9.40
2023-03-13T08:59:34.111Z,9.50
2023-03-13T09:02:00.898Z,9.60
2023-03-13T09:04:27.522Z,9.60
2023-03-13T09:06:54.189Z,9.60
2023-03-13T09:09:20.755Z,9.60
2023-03-13T09:11:47.383Z,9.70
2023-03-13T09:14:13.975Z,9.70
2023-03-13T09:16:40.551Z,9.80
2023-03-13T09:19:07.444Z,9.80
2023-03-13T09:21:34.783Z,9.90
2023-03-13T09:24:01.917Z,9.90
2023-03-13T09:26:28.693Z,10.00
2023-03-13T09:28:55.635Z,10.00
2023-03-13T09:31:23.789Z,10.10
2023-03-13T09:33:50.554Z,10.10
2023-03-13T09:36:21.203Z,10.20
2023-03-13T09:38:48.599Z,10.10
2023-03-13T09:41:18.252Z,10.20
2023-03-13T09:43:47.832Z,10.10
2023-03-13T09:46:23.907Z,10.20
2023-03-13T09:49:10.760Z,10.20
2023-03-13T09:51:40.153Z,10.30
2023-03-13T09:54:17.411Z,10.30
2023-03-13T09:56:55.292Z,10.20
2023-03-13T09:59:29.010Z,10.30
2023-03-13T10:01:58.466Z,10.40
2023-03-13T10:04:40.475Z,10.40
2023-03-13T10:07:11.694Z,10.50
2023-03-13T10:09:40.649Z,10.50
2023-03-13T10:12:18.956Z,10.60
2023-03-13T10:14:52.826Z,10.70
2023-03-13T10:17:38.623Z,10.70
2023-03-13T10:20:11.362Z,10.70
2023-03-13T10:22:38.271Z,10.90
2023-03-13T10:25:10.023Z,10.90
2023-03-13T10:27:50.971Z,11.00
2023-03-13T10:30:23.955Z,11.10
2023-03-13T10:32:50.813Z,11.10
2023-03-13T10:35:22.271Z,11.20
2023-03-13T10:37:48.856Z,11.30
2023-03-13T10:40:23.120Z,11.40
2023-03-13T10:42:50.875Z,11.50
2023-03-13T10:45:18.909Z,12.00
2023-03-13T10:47:45.492Z,12.30
2023-03-13T10:50:18.562Z,12.60
2023-03-13T10:52:47.488Z,12.70
2023-03-13T10:55:24.013Z,12.70
2023-03-13T10:57:54.382Z,12.70
2023-03-13T11:00:33.356Z,12.70
2023-03-13T11:03:00.208Z,12.70
2023-03-13T11:05:30.830Z,13.00
2023-03-13T11:07:57.531Z,13.50
2023-03-13T11:10:30.202Z,14.70
2023-03-13T11:12:57.739Z,16.30
2023-03-13T11:15:33.460Z,17.30
2023-03-13T11:18:03.037Z,17.10
2023-03-13T11:20:36.801Z,15.90
2023-03-13T11:23:03.394Z,15.30
2023-03-13T11:25:41.535Z,14.80
2023-03-13T11:28:20.690Z,14.30
2023-03-13T11:31:03.444Z,14.20
2023-03-13T11:33:53.125Z,14.30
2023-03-13T11:36:22.817Z,14.20
2023-03-13T11:38:53.503Z,14.20
2023-03-13T11:41:40.307Z,14.20
2023-03-13T11:44:10.075Z,14.10
2023-03-13T11:46:55.509Z,14.10
2023-03-13T11:49:31.902Z,14.00
2023-03-13T11:52:09.664Z,13.90
2023-03-13T11:54:51.759Z,13.70
2023-03-13T11:57:29.775Z,13.70
2023-03-13T12:00:14.862Z,13.80
2023-03-13T12:02:49.778Z,14.00
2023-03-13T12:05:18.029Z,14.30
2023-03-13T12:07:51.006Z,14.50
2023-03-13T12:10:29.609Z,14.70
2023-03-13T12:12:56.194Z,14.80
2023-03-13T12:15:40.715Z,15.10
2023-03-13T12:18:19.376Z,15.10
2023-03-13T12:21:06.249Z,15.00
2023-03-13T12:23:35.961Z,14.80
2023-03-13T12:26:02.512Z,14.70
2023-03-13T12:28:29.133Z,14.50
2023-03-13T12:31:06.447Z,14.50
2023-03-13T12:33:40.153Z,14.50
2023-03-13T12:36:10.989Z,14.70
2023-03-13T12:38:40.972Z,15.20
2023-03-13T12:41:07.553Z,15.80
2023-03-13T12:43:36.715Z,15.80
2023-03-13T12:46:06.182Z,15.90
2023-03-13T12:48:42.242Z,18.00
2023-03-13T12:51:17.647Z,20.60
2023-03-13T12:53:44.346Z,22.40
2023-03-13T12:56:29.300Z,23.40
2023-03-13T12:58:58.314Z,21.90
2023-03-13T13:01:24.888Z,20.10
2023-03-13T13:04:10.380Z,19.20
2023-03-13T13:06:57.409Z,18.50
2023-03-13T13:09:27.970Z,18.00
2023-03-13T13:11:55.643Z,18.20
2023-03-13T13:14:22.222Z,18.10
2023-03-13T13:17:00.790Z,20.60
2023-03-13T13:19:27.335Z,22.30
2023-03-13T13:22:12.530Z,22.30
2023-03-13T13:24:40.945Z,22.40
2023-03-13T13:27:27.133Z,22.20
2023-03-13T13:29:55.142Z,21.10
2023-03-13T13:32:33.679Z,20.60
2023-03-13T13:35:03.419Z,21.10
2023-03-13T13:37:30.239Z,21.10
2023-03-13T13:40:10.182Z,20.10
2023-03-13T13:42:41.923Z,19.80
2023-03-13T13:45:14.722Z,20.70
2023-03-13T13:47:42.079Z,21.90
2023-03-13T13:50:17.768Z,22.30
2023-03-13T13:52:44.679Z,21.70
2023-03-13T13:55:26.287Z,21.50
2023-03-13T13:58:00.224Z,20.40
2023-03-13T14:00:29.010Z,19.60
2023-03-13T14:02:56.750Z,18.90
2023-03-13T14:05:26.721Z,18.80
2023-03-13T14:08:30.463Z,18.80
2023-03-13T14:11:15.948Z,18.40
2023-03-13T14:13:42.548Z,18.50
2023-03-13T14:16:27.556Z,19.20
2023-03-13T14:18:54.250Z,19.80
2023-03-13T14:21:21.673Z,20.20
2023-03-13T14:23:48.325Z,20.90
2023-03-13T14:26:16.036Z,20.60
2023-03-13T14:28:43.415Z,20.30
2023-03-13T14:31:11.997Z,19.50
2023-03-13T14:33:38.865Z,19.10
2023-03-13T14:36:05.689Z,18.70
2023-03-13T14:38:33.512Z,18.50
2023-03-13T14:41:00.163Z,18.00
2023-03-13T14:43:26.845Z,18.10
2023-03-13T14:45:53.747Z,18.10
2023-03-13T14:48:20.370Z,18.30
2023-03-13T14:50:48.115Z,18.20
2023-03-13T14:53:19.665Z,17.90
2023-03-13T14:55:46.549Z,17.90
2023-03-13T14:58:27.441Z,18.00
2023-03-13T15:00:54.891Z,18.30
2023-03-13T15:03:24.350Z,18.00
2023-03-13T15:06:07.979Z,17.70
2023-03-13T15:08:36.169Z,17.50
2023-03-13T15:11:03.152Z,17.70
2023-03-13T15:13:33.059Z,18.20
2023-03-13T15:16:00.028Z,19.90
2023-03-13T15:18:28.433Z,19.90
2023-03-13T15:20:56.791Z,19.90
2023-03-13T15:23:23.614Z,20.20
2023-03-13T15:25:50.264Z,21.00
2023-03-13T15:28:17.934Z,19.90
2023-03-13T15:30:45.170Z,19.50
2023-03-13T15:33:19.334Z,20.30
2023-03-13T15:35:46.785Z,19.90
2023-03-13T15:38:14.629Z,18.80
2023-03-13T15:40:41.391Z,18.10
2023-03-13T15:43:08.318Z,17.50
2023-03-13T15:45:36.462Z,17.30
2023-03-13T15:48:03.452Z,17.00
2023-03-13T15:50:30.887Z,16.80
2023-03-13T15:52:58.301Z,16.60
2023-03-13T15:55:28.786Z,16.50
2023-03-13T15:57:55.463Z,16.40
2023-03-13T16:00:23.961Z,16.30
2023-03-13T16:02:50.836Z,16.20
2023-03-13T16:05:17.544Z,16.20
2023-03-13T16:07:44.221Z,16.20
2023-03-13T16:10:24.476Z,16.30
2023-03-13T16:12:51.989Z,16.30
2023-03-13T16:15:18.580Z,16.30
2023-03-13T16:17:45.182Z,16.30
2023-03-13T16:20:12.918Z,16.20
2023-03-13T16:22:39.480Z,16.30
2023-03-13T16:25:06.995Z,16.20
2023-03-13T16:27:33.617Z,16.30
2023-03-13T16:30:01.918Z,16.30
2023-03-13T16:32:28.643Z,16.30
2023-03-13T16:34:55.314Z,16.20
2023-03-13T16:37:22.441Z,16.20
2023-03-13T16:39:50.676Z,16.20
2023-03-13T16:42:17.262Z,16.10
2023-03-13T16:44:43.888Z,16.10
2023-03-13T16:47:19.745Z,16.10
2023-03-13T16:49:47.694Z,16.10
2023-03-13T16:52:15.559Z,16.10
2023-03-13T16:54:42.157Z,16.00
2023-03-13T16:57:12.528Z,16.00
2023-03-13T16:59:39.272Z,16.00
2023-03-13T17:02:12.805Z,16.00
2023-03-13T17:04:39.777Z,16.00
2023-03-13T17:07:17.334Z,16.00
2023-03-13T17:09:43.982Z,16.00
2023-03-13T17:12:10.588Z,16.00
2023-03-13T17:14:37.169Z,16.00
2023-03-13T17:17:06.815Z,15.90
2023-03-13T17:19:33.512Z,15.90
2023-03-13T17:22:00.235Z,15.80
2023-03-13T17:24:26.872Z,15.70
2023-03-13T17:26:53.531Z,15.70
2023-03-13T17:29:20.101Z,15.60
2023-03-13T17:31:46.808Z,15.60
2023-03-13T17:34:13.393Z,15.60
2023-03-13T17:36:40.051Z,15.60
2023-03-13T17:39:11.483Z,15.50
2023-03-13T17:41:38.093Z,15.50
2023-03-13T17:44:04.890Z,15.50
2023-03-13T17:46:36.719Z,15.40
2023-03-13T17:49:03.407Z,15.40
2023-03-13T17:51:31.519Z,15.30
2023-03-13T17:53:58.408Z,15.30
2023-03-13T17:56:29.608Z,15.30
2023-03-13T17:58:58.345Z,15.20
2023-03-13T18:01:26.503Z,15.20
2023-03-13T18:03:53.603Z,15.20
2023-03-13T18:06:24.582Z,15.20
2023-03-13T18:08:52.035Z,15.20
2023-03-13T18:11:19.061Z,15.20
2023-03-13T18:13:46.308Z,15.30
2023-03-13T18:16:15.655Z,15.30
2023-03-13T18:18:42.388Z,15.20
2023-03-13T18:21:09.033Z,15.20
2023-03-13T18:23:35.694Z,15.20
2023-03-13T18:26:02.354Z,15.10
2023-03-13T18:28:28.947Z,15.10
2023-03-13T18:30:55.512Z,15.10
2023-03-13T18:33:22.120Z,15.10
2023-03-13T18:35:48.718Z,15.10
2023-03-13T18:38:15.711Z,15.10
2023-03-13T18:40:42.377Z,15.10
2023-03-13T18:43:08.965Z,15.10
2023-03-13T18:45:36.345Z,15.10
2023-03-13T18:48:02.967Z,15.10
2023-03-13T18:50:31.102Z,15.10
2023-03-13T18:52:58.602Z,15.10
2023-03-13T18:55:26.092Z,15.10
2023-03-13T18:57:53.310Z,15.10
2023-03-13T19:00:23.124Z,15.10
2023-03-13T19:02:49.951Z,15.10
2023-03-13T19:05:17.310Z,15.10
2023-03-13T19:07:44.339Z,15.10
2023-03-13T19:10:31.016Z,15.10
2023-03-13T19:12:57.786Z,15.20
2023-03-13T19:15:26.422Z,15.20
2023-03-13T19:17:53.823Z,15.20
2023-03-13T19:20:22.149Z,15.10
2023-03-13T19:22:48.842Z,15.20
2023-03-13T19:25:18.364Z,15.20
2023-03-13T19:27:45.387Z,15.20
2023-03-13T19:30:22.632Z,15.20
2023-03-13T19:32:49.649Z,15.10
2023-03-13T19:35:21.849Z,15.10
2023-03-13T19:37:49.037Z,15.10
2023-03-13T19:40:25.805Z,15.10
2023-03-13T19:42:52.559Z,15.20
2023-03-13T19:45:21.617Z,15.20
2023-03-13T19:47:48.288Z,15.20
2023-03-13T19:50:19.134Z,15.20
2023-03-13T19:52:45.913Z,15.10
2023-03-13T19:55:13.033Z,15.10
2023-03-13T19:57:39.629Z,15.10
2023-03-13T20:00:08.987Z,15.10
2023-03-13T20:02:35.749Z,15.00
2023-03-13T20:05:02.425Z,15.00
2023-03-13T20:07:29.279Z,14.90
2023-03-13T20:09:55.907Z,14.80
2023-03-13T20:12:22.542Z,14.80
2023-03-13T20:14:49.136Z,14.70
2023-03-13T20:17:15.761Z,14.70
2023-03-13T20:19:42.334Z,14.60
2023-03-13T20:22:09.736Z,14.60
2023-03-13T20:24:36.396Z,14.50
2023-03-13T20:27:03.384Z,14.50
2023-03-13T20:29:30.047Z,14.50
2023-03-13T20:32:00.280Z,14.40
2023-03-13T20:34:27.640Z,14.40
2023-03-13T20:36:56.475Z,14.30
2023-03-13T20:39:23.839Z,14.30
2023-03-13T20:41:50.420Z,14.20
2023-03-13T20:44:17.065Z,14.20
2023-03-13T20:46:43.702Z,14.20
2023-03-13T20:49:10.297Z,14.20
2023-03-13T20:51:37.208Z,14.20
2023-03-13T20:54:03.931Z,14.20
2023-03-13T20:56:30.552Z,14.20
2023-03-13T20:58:57.164Z,14.20
2023-03-13T21:01:25.471Z,14.10
2023-03-13T21:03:52.966Z,14.10
2023-03-13T21:06:19.676Z,14.10
2023-03-13T21:08:46.998Z,14.10
2023-03-13T21:11:13.644Z,14.10
2023-03-13T21:13:40.266Z,14.10
2023-03-13T21:16:07.062Z,14.10
2023-03-13T21:18:33.748Z,14.10
2023-03-13T21:21:06.277Z,14.00
2023-03-13T21:23:33.128Z,14.10
2023-03-13T21:26:00.482Z,14.00
2023-03-13T21:28:27.951Z,14.00
2023-03-13T21:30:54.892Z,14.10
2023-03-13T21:33:21.796Z,14.00
2023-03-13T21:35:49.622Z,14.00
2023-03-13T21:38:16.321Z,14.10
2023-03-13T21:40:42.958Z,14.10
2023-03-13T21:43:09.571Z,14.10
2023-03-13T21:45:36.224Z,14.10
2023-03-13T21:48:03.047Z,14.10
2023-03-13T21:50:29.633Z,14.10
2023-03-13T21:52:56.253Z,14.10
2023-03-13T21:55:22.824Z,14.10
2023-03-13T21:57:49.452Z,14.10
2023-03-13T22:00:16.225Z,14.10
2023-03-13T22:02:42.949Z,14.10
2023-03-13T22:05:09.710Z,14.10
2023-03-13T22:07:36.425Z,14.10
2023-03-13T22:10:03.346Z,14.10
2023-03-13T22:12:29.953Z,14.10
2023-03-13T22:14:57.832Z,14.10
2023-03-13T22:17:24.586Z,14.10
2023-03-13T22:19:51.251Z,14.10
2023-03-13T22:22:19.855Z,14.10
2023-03-13T22:24:48.485Z,14.10
2023-03-13T22:27:15.564Z,14.20
2023-03-13T22:29:42.119Z,14.10
2023-03-13T22:32:09.624Z,14.20
2023-03-13T22:34:36.323Z,14.20
2023-03-13T22:37:02.967Z,14.20
2023-03-13T22:39:29.626Z,14.20
2023-03-13T22:41:56.284Z,14.20
2023-03-13T22:44:22.874Z,14.20
2023-03-13T22:46:49.432Z,14.10
2023-03-13T22:49:16.071Z,14.20
2023-03-13T22:51:42.666Z,14.10
2023-03-13T22:54:09.336Z,14.10
2023-03-13T22:56:35.898Z,14.10
2023-03-13T22:59:03.580Z,14.00
2023-03-13T23:01:30.201Z,14.10
2023-03-13T23:03:56.943Z,14.00
2023-03-13T23:06:24.782Z,14.00
2023-03-13T23:08:51.840Z,14.00
2023-03-13T23:11:18.923Z,14.00
2023-03-13T23:13:45.488Z,14.00
2023-03-13T23:16:12.678Z,14.00
2023-03-13T23:18:39.575Z,14.00
2023-03-13T23:21:07.039Z,14.00
2023-03-13T23:23:33.941Z,14.00
2023-03-13T23:26:01.435Z,14.00
2023-03-13T23:28:28.082Z,14.00
2023-03-13T23:30:54.698Z,14.00
2023-03-13T23:33:21.350Z,13.90
2023-03-13T23:35:47.986Z,13.90
2023-03-13T23:38:18.194Z,13.90
2023-03-13T23:40:44.756Z,13.90
2023-03-13T23:43:11.449Z,13.80
2023-03-13T23:45:38.071Z,13.80
2023-03-13T23:48:04.779Z,13.70
2023-03-13T23:50:31.366Z,13.60
2023-03-13T23:52:57.930Z,13.60
2023-03-13T23:55:24.581Z,13.50
2023-03-13T23:57:51.194Z,13.50
